Time;durP1;ratioP1;P1;durP2;ratioP2;P2;SDS_P1;SDS_P2;PMS_P1;PMS_P2;Temp;Humidity;BMP_temperature;BMP_pressure;BME280_temperature;BME280_humidity;BME280_pressure;Samples;Min_cycle;Max_cycle;Signal;HPM_P1;HPM_P2
2022/03/30 00:00:50;;;;;;;26.57;13.57;;;12.30;50.40;;;;;;7374637;19;20380;-42
2022/03/30 00:03:21;;;;;;;22.00;13.10;;;12.30;50.60;;;;;;7376338;19;20372;-42
2022/03/30 00:05:53;;;;;;;27.27;14.13;;;12.20;50.60;;;;;;7367646;19;20919;-42
2022/03/30 00:08:29;;;;;;;20.90;13.70;;;12.30;50.70;;;;;;7369755;19;20378;-42
2022/03/30 00:11:03;;;;;;;25.57;14.50;;;12.40;50.70;;;;;;7372549;19;20360;-42
2022/03/30 00:13:35;;;;;;;20.93;14.20;;;12.50;50.50;;;;;;7379196;19;21021;-42
2022/03/30 00:16:08;;;;;;;20.60;14.50;;;12.50;50.40;;;;;;7365621;19;20360;-42
2022/03/30 00:18:38;;;;;;;18.40;12.90;;;12.60;50.50;;;;;;7379904;19;20380;-41
2022/03/30 00:21:10;;;;;;;24.33;14.33;;;12.60;50.50;;;;;;7373611;19;20380;-42
2022/03/30 00:23:44;;;;;;;19.70;12.33;;;12.70;50.50;;;;;;7371496;19;20384;-43
2022/03/30 00:26:19;;;;;;;19.40;12.47;;;12.70;50.50;;;;;;7373789;19;20988;-42
2022/03/30 00:28:50;;;;;;;28.07;14.13;;;12.80;50.60;;;;;;7375389;19;20419;-42
2022/03/30 00:31:20;;;;;;;21.77;13.27;;;12.80;51.20;;;;;;7369704;19;20376;-42
2022/03/30 00:33:52;;;;;;;24.33;13.27;;;12.90;50.60;;;;;;7372431;19;20471;-42
2022/03/30 00:36:24;;;;;;;22.97;13.37;;;12.80;50.70;;;;;;7374860;19;21478;-42
2022/03/30 00:39:01;;;;;;;25.00;13.67;;;12.70;51.10;;;;;;7364879;19;20358;-42
2022/03/30 00:41:31;;;;;;;25.17;13.50;;;12.90;51.20;;;;;;7370289;19;20909;-42
2022/03/30 00:44:00;;;;;;;25.03;12.43;;;12.90;51.10;;;;;;7369845;19;20392;-42
2022/03/30 00:46:30;;;;;;;21.70;14.17;;;12.80;51.10;;;;;;7367978;19;20389;-42
2022/03/30 00:48:59;;;;;;;21.83;14.53;;;12.70;51.10;;;;;;7376051;19;20372;-42
2022/03/30 00:51:29;;;;;;;22.40;13.03;;;12.80;51.00;;;;;;7365437;19;20384;-42
2022/03/30 00:54:06;;;;;;;30.87;14.40;;;12.80;51.10;;;;;;7369238;19;20380;-42
2022/03/30 00:56:40;;;;;;;21.30;12.50;;;12.80;50.80;;;;;;7375234;19;20396;-42
2022/03/30 00:59:11;;;;;;;19.53;12.47;;;12.90;51.00;;;;;;7372665;19;20443;-43
2022/03/30 01:01:42;;;;;;;22.70;13.40;;;13.00;51.30;;;;;;7372153;19;20343;-43
2022/03/30 01:04:14;;;;;;;20.27;12.10;;;13.00;50.60;;;;;;7373439;19;20367;-42
2022/03/30 01:06:49;;;;;;;23.00;14.83;;;12.90;50.80;;;;;;7367341;19;20434;-43
2022/03/30 01:09:21;;;;;;;20.93;11.97;;;13.00;51.60;;;;;;7359302;19;20418;-42
2022/03/30 01:11:56;;;;;;;18.43;11.43;;;13.00;51.20;;;;;;7369266;19;20379;-43
2022/03/30 01:14:31;;;;;;;18.27;12.47;;;13.10;51.40;;;;;;7376236;19;20372;-43
2022/03/30 01:17:04;;;;;;;20.93;12.83;;;13.30;51.70;;;;;;7367275;19;20408;-42
2022/03/30 01:19:37;;;;;;;17.23;12.20;;;13.30;51.60;;;;;;7369153;19;20439;-43
2022/03/30 01:22:11;;;;;;;19.13;11.80;;;13.10;51.70;;;;;;7367909;19;20380;-43
2022/03/30 01:24:43;;;;;;;19.93;13.13;;;13.00;53.00;;;;;;7374825;19;20375;-43
2022/03/30 01:27:12;;;;;;;19.93;13.70;;;12.80;52.60;;;;;;7359033;19;20440;-43
2022/03/30 01:32:29;;;;;;;25.90;12.30;;;12.70;53.00;;;;;;7369379;19;20891;-43
2022/03/30 01:35:03;;;;;;;19.83;11.80;;;12.70;53.00;;;;;;7373009;19;20941;-42
2022/03/30 01:37:35;;;;;;;20.37;12.67;;;12.80;53.20;;;;;;7367220;19;20410;-43
2022/03/30 01:40:09;;;;;;;25.13;13.57;;;12.70;53.70;;;;;;7363068;19;20439;-43
2022/03/30 01:42:39;;;;;;;22.63;12.57;;;12.70;53.90;;;;;;7364902;19;20371;-43
2022/03/30 01:45:15;;;;;;;18.13;11.67;;;12.70;54.00;;;;;;7367087;19;20770;-43
2022/03/30 01:47:50;;;;;;;19.07;13.53;;;12.70;53.60;;;;;;7368529;19;20885;-43
2022/03/30 01:50:20;;;;;;;22.40;13.37;;;12.90;52.50;;;;;;7364195;19;20382;-45
2022/03/30 01:52:55;;;;;;;18.50;12.50;;;13.00;51.90;;;;;;7373228;19;20372;-42
2022/03/30 01:55:25;;;;;;;19.80;12.70;;;13.20;51.40;;;;;;7378774;19;20906;-42
2022/03/30 01:57:56;;;;;;;24.43;12.53;;;13.20;50.80;;;;;;7375325;19;20379;-43
2022/03/30 02:00:32;;;;;;;18.83;12.47;;;13.30;50.70;;;;;;7370536;19;20395;-44
2022/03/30 02:03:03;;;;;;;20.87;13.37;;;13.40;50.30;;;;;;7372817;19;20394;-44
2022/03/30 02:05:33;;;;;;;19.27;13.00;;;13.50;50.40;;;;;;7365917;19;20382;-43
2022/03/30 02:08:08;;;;;;;20.67;13.10;;;13.50;50.00;;;;;;7377793;19;20380;-43
2022/03/30 02:10:38;;;;;;;21.53;14.60;;;13.40;49.70;;;;;;7378400;19;20388;-43
2022/03/30 02:13:08;;;;;;;20.80;13.07;;;13.40;49.60;;;;;;7376506;19;20385;-43
2022/03/30 02:15:37;;;;;;;17.53;12.03;;;13.30;50.40;;;;;;7374484;19;20380;-43
2022/03/30 02:18:10;;;;;;;24.93;13.73;;;13.10;50.80;;;;;;7376563;19;20384;-43
2022/03/30 02:20:42;;;;;;;22.80;13.33;;;13.00;52.30;;;;;;7372909;19;20388;-43
2022/03/30 02:23:14;;;;;;;30.10;13.07;;;12.80;52.70;;;;;;7374005;19;20950;-43
2022/03/30 02:25:56;;;;;;;18.90;13.03;;;12.60;53.10;;;;;;7375978;19;20403;-43
2022/03/30 02:28:28;;;;;;;20.30;13.37;;;12.60;52.60;;;;;;7376484;19;20370;-43
2022/03/30 02:30:57;;;;;;;19.43;12.97;;;12.60;53.00;;;;;;7373942;19;20369;-43
2022/03/30 02:33:35;;;;;;;21.97;12.63;;;12.70;53.70;;;;;;7373751;19;20372;-43
2022/03/30 02:36:05;;;;;;;20.70;12.50;;;12.70;53.90;;;;;;7377153;19;20447;-43
2022/03/30 02:38:37;;;;;;;19.40;12.43;;;12.70;53.90;;;;;;7374876;19;20364;-43
2022/03/30 02:41:15;;;;;;;22.73;12.83;;;12.60;53.60;;;;;;7378139;19;21092;-43
2022/03/30 02:43:45;;;;;;;18.53;12.07;;;12.60;54.00;;;;;;7377580;19;21155;-43
2022/03/30 02:46:14;;;;;;;23.93;13.60;;;12.60;53.80;;;;;;7374415;19;20384;-43
2022/03/30 02:48:44;;;;;;;21.63;12.63;;;12.60;53.50;;;;;;7372833;19;20380;-43
2022/03/30 02:51:13;;;;;;;23.10;12.97;;;12.50;54.10;;;;;;7375521;19;20392;-43
2022/03/30 02:53:45;;;;;;;20.97;12.20;;;12.60;53.40;;;;;;7370433;19;20389;-43
2022/03/30 02:56:15;;;;;;;20.97;13.40;;;12.70;53.60;;;;;;7372268;19;21009;-43
2022/03/30 02:59:05;;;;;;;21.23;13.20;;;12.60;53.70;;;;;;7368667;19;20440;-43
2022/03/30 03:01:34;;;;;;;22.10;12.57;;;12.60;53.60;;;;;;7377863;19;21066;-43
2022/03/30 03:04:04;;;;;;;26.67;12.70;;;12.60;53.50;;;;;;7371116;19;20958;-43
2022/03/30 03:06:34;;;;;;;20.10;12.90;;;12.50;53.50;;;;;;7365703;19;20449;-44
2022/03/30 03:09:11;;;;;;;29.50;14.70;;;12.60;54.00;;;;;;7374772;19;20944;-43
2022/03/30 03:11:43;;;;;;;22.43;12.10;;;12.50;53.50;;;;;;7370548;19;20376;-43
2022/03/30 03:14:16;;;;;;;23.60;12.47;;;12.40;53.40;;;;;;7374590;19;20918;-44
2022/03/30 03:16:50;;;;;;;19.47;12.17;;;12.50;53.40;;;;;;7373717;19;20914;-43
2022/03/30 03:19:19;;;;;;;21.93;12.67;;;12.60;52.90;;;;;;7374897;19;21049;-43
2022/03/30 03:21:49;;;;;;;25.10;12.70;;;12.70;52.60;;;;;;7378268;19;20390;-45
2022/03/30 03:24:24;;;;;;;20.00;11.83;;;12.60;52.90;;;;;;7377225;19;20906;-43
2022/03/30 03:26:56;;;;;;;17.53;11.63;;;12.60;52.90;;;;;;7376351;19;20376;-41
2022/03/30 03:29:36;;;;;;;27.63;13.43;;;12.60;52.80;;;;;;7374124;19;20399;-44
2022/03/30 03:32:07;;;;;;;21.67;11.97;;;12.60;52.70;;;;;;7371179;19;20395;-44
2022/03/30 03:34:39;;;;;;;22.63;12.60;;;12.70;52.70;;;;;;7377030;19;20356;-44
2022/03/30 03:37:11;;;;;;;21.27;13.00;;;12.80;52.20;;;;;;7375187;19;20962;-44
2022/03/30 03:39:45;;;;;;;18.60;11.57;;;12.90;52.80;;;;;;7375066;19;20420;-44
2022/03/30 03:42:18;;;;;;;25.50;12.97;;;13.00;52.00;;;;;;7377556;19;20945;-43
2022/03/30 03:44:48;;;;;;;19.93;12.77;;;13.10;51.50;;;;;;7373796;19;20376;-44
2022/03/30 03:47:24;;;;;;;20.00;12.13;;;13.10;51.50;;;;;;7371401;19;20372;-44
2022/03/30 03:49:53;;;;;;;20.47;12.47;;;13.20;51.40;;;;;;7371179;19;20405;-44
2022/03/30 03:52:23;;;;;;;21.30;13.30;;;13.10;51.00;;;;;;7374753;19;20372;-44
2022/03/30 03:54:55;;;;;;;23.83;13.83;;;13.10;50.80;;;;;;7374658;19;20403;-42
2022/03/30 03:57:24;;;;;;;24.30;11.53;;;13.20;50.80;;;;;;7375381;19;20388;-45
2022/03/30 03:59:54;;;;;;;20.40;14.17;;;13.10;50.80;;;;;;7372512;19;20448;-42
2022/03/30 04:02:26;;;;;;;18.80;11.67;;;13.10;50.90;;;;;;7369503;19;20946;-45
2022/03/30 04:04:55;;;;;;;21.37;11.60;;;13.10;50.80;;;;;;7369317;19;20780;-42
2022/03/30 04:07:24;;;;;;;20.73;13.00;;;13.20;51.10;;;;;;7377158;19;20410;-42
2022/03/30 04:10:01;;;;;;;24.20;13.50;;;13.30;51.20;;;;;;7372004;19;21119;-42
2022/03/30 04:12:31;;;;;;;23.87;13.77;;;13.30;51.20;;;;;;7370764;19;20400;-42
2022/03/30 04:15:01;;;;;;;18.67;11.37;;;13.30;51.80;;;;;;7374758;19;20935;-42
2022/03/30 04:17:32;;;;;;;20.70;12.97;;;13.10;52.50;;;;;;7367594;19;21241;-42
2022/03/30 04:20:04;;;;;;;17.37;11.77;;;12.90;52.80;;;;;;7372056;19;20921;-39
2022/03/30 04:22:34;;;;;;;20.33;11.77;;;12.90;52.50;;;;;;7373529;19;20997;-39
2022/03/30 04:25:09;;;;;;;26.70;12.43;;;12.90;53.00;;;;;;7369305;19;20471;-39
2022/03/30 04:27:45;;;;;;;21.60;13.30;;;13.00;53.60;;;;;;7370400;19;25222;-39
2022/03/30 04:30:18;;;;;;;22.47;12.00;;;12.90;53.40;;;;;;7351933;19;20818;-42
2022/03/30 04:32:50;;;;;;;23.73;13.60;;;13.00;53.80;;;;;;7370148;19;20407;-40
2022/03/30 04:35:24;;;;;;;23.80;13.37;;;12.90;53.20;;;;;;7368211;19;20939;-40
2022/03/30 04:37:55;;;;;;;27.50;11.87;;;13.00;53.40;;;;;;7371079;19;20976;-39
2022/03/30 04:40:29;;;;;;;20.43;11.37;;;13.00;52.80;;;;;;7370686;19;20399;-40
2022/03/30 04:42:59;;;;;;;19.63;12.20;;;13.00;53.30;;;;;;7373202;19;20750;-40
2022/03/30 04:45:31;;;;;;;20.30;12.30;;;13.00;54.10;;;;;;7360624;19;20736;-39
2022/03/30 04:48:05;;;;;;;22.13;12.00;;;13.10;54.10;;;;;;7365083;19;20391;-40
2022/03/30 04:50:37;;;;;;;22.17;12.73;;;13.00;55.10;;;;;;7371383;19;21041;-39
2022/03/30 04:53:11;;;;;;;16.77;11.30;;;13.10;56.10;;;;;;7366636;19;20413;-40
2022/03/30 04:55:47;;;;;;;15.60;10.27;;;13.10;56.90;;;;;;7370029;19;20384;-40
2022/03/30 04:58:18;;;;;;;18.03;10.30;;;13.10;57.10;;;;;;7369183;19;20974;-39
2022/03/30 05:00:48;;;;;;;24.43;10.73;;;13.00;58.00;;;;;;7360904;19;20929;-43
2022/03/30 05:03:22;;;;;;;22.73;10.47;;;12.90;58.70;;;;;;7360422;19;20391;-43
2022/03/30 05:05:52;;;;;;;22.50;10.40;;;12.80;58.90;;;;;;7369150;19;20385;-43
2022/03/30 05:08:24;;;;;;;16.33;10.10;;;12.70;60.80;;;;;;7368510;19;20387;-43
2022/03/30 05:10:56;;;;;;;21.13;9.80;;;12.70;61.60;;;;;;7370891;19;20372;-42
2022/03/30 05:13:30;;;;;;;27.30;10.63;;;12.70;63.30;;;;;;7369763;19;20356;-43
2022/03/30 05:16:02;;;;;;;20.60;10.27;;;12.70;64.80;;;;;;7366174;19;21528;-43
2022/03/30 05:18:31;;;;;;;25.40;10.77;;;12.60;64.40;;;;;;7375274;19;20948;-42
2022/03/30 05:21:05;;;;;;;22.07;10.40;;;12.60;66.40;;;;;;7362687;19;20376;-44
2022/03/30 05:23:36;;;;;;;23.80;11.30;;;12.50;67.00;;;;;;7367156;19;20389;-42
2022/03/30 05:26:10;;;;;;;22.50;10.73;;;12.50;67.20;;;;;;7370795;19;20376;-45
2022/03/30 05:28:40;;;;;;;21.77;11.97;;;12.40;67.40;;;;;;7374148;19;20391;-42
2022/03/30 05:31:10;;;;;;;25.63;12.70;;;12.40;68.60;;;;;;7370536;19;20979;-42
2022/03/30 05:33:42;;;;;;;19.30;11.57;;;12.50;68.80;;;;;;7378906;19;20424;-43
2022/03/30 05:36:14;;;;;;;20.87;11.50;;;12.30;69.10;;;;;;7374825;19;20455;-42
2022/03/30 05:38:44;;;;;;;21.27;11.97;;;12.20;69.60;;;;;;7373548;19;20770;-42
2022/03/30 05:41:17;;;;;;;18.57;9.40;;;12.10;70.30;;;;;;7381736;19;20898;-42
2022/03/30 05:43:46;;;;;;;23.00;11.80;;;12.10;71.00;;;;;;7359574;19;20376;-42
2022/03/30 05:46:16;;;;;;;22.90;10.17;;;12.20;73.00;;;;;;7371600;19;20384;-42
2022/03/30 05:48:48;;;;;;;23.67;12.77;;;12.10;72.50;;;;;;7376254;19;20372;-42
2022/03/30 05:51:18;;;;;;;30.30;12.37;;;11.90;72.60;;;;;;7377072;19;20364;-41
2022/03/30 05:53:48;;;;;;;22.63;12.43;;;11.90;73.60;;;;;;7379794;19;20468;-42
2022/03/30 05:56:59;;;;;;;17.23;11.00;;;11.90;74.50;;;;;;7381124;19;20356;-42
2022/03/30 05:59:12;;;;;;;27.03;11.13;;;11.80;75.00;;;;;;7373744;19;20961;-42
2022/03/30 06:01:42;;;;;;;17.80;11.17;;;11.90;75.20;;;;;;7375420;19;20347;-39
2022/03/30 06:04:11;;;;;;;22.37;10.53;;;12.00;74.10;;;;;;7375835;19;20469;-39
2022/03/30 06:06:40;;;;;;;20.50;10.37;;;12.10;73.80;;;;;;7363860;19;20380;-39
2022/03/30 06:09:10;;;;;;;19.97;11.40;;;12.10;73.40;;;;;;7370334;19;20379;-39
2022/03/30 06:11:44;;;;;;;24.33;11.73;;;12.20;73.50;;;;;;7380145;19;20687;-39
2022/03/30 06:14:14;;;;;;;22.70;11.43;;;12.10;74.30;;;;;;7377115;19;20384;-39
2022/03/30 06:16:45;;;;;;;24.10;12.30;;;12.10;74.40;;;;;;7378062;19;20420;-39
2022/03/30 06:19:17;;;;;;;23.77;11.30;;;12.00;76.00;;;;;;7383400;19;20375;-39
2022/03/30 06:21:49;;;;;;;23.03;11.00;;;12.10;77.00;;;;;;7381778;19;20376;-39
2022/03/30 06:24:21;;;;;;;20.87;11.47;;;12.10;76.60;;;;;;7370862;19;20375;-39
2022/03/30 06:26:54;;;;;;;21.30;10.73;;;12.10;76.20;;;;;;7364334;19;20974;-39
2022/03/30 06:29:26;;;;;;;17.67;12.47;;;12.00;77.10;;;;;;7363852;19;21015;-42
2022/03/30 06:32:00;;;;;;;21.73;11.23;;;12.00;78.10;;;;;;7377577;19;20365;-42
2022/03/30 06:34:29;;;;;;;21.30;12.80;;;11.90;78.80;;;;;;7381774;19;21049;-42
2022/03/30 06:37:02;;;;;;;18.50;11.00;;;11.80;78.40;;;;;;7376558;19;20391;-43
2022/03/30 06:39:33;;;;;;;27.43;12.60;;;11.90;78.90;;;;;;7376032;19;20878;-42
2022/03/30 06:42:06;;;;;;;18.53;10.80;;;11.90;79.30;;;;;;7378588;19;20916;-43
2022/03/30 06:44:38;;;;;;;18.70;11.30;;;11.80;79.90;;;;;;7363307;19;20727;-43
2022/03/30 06:47:11;;;;;;;21.80;11.57;;;11.80;79.00;;;;;;7362298;19;20372;-43
2022/03/30 06:49:41;;;;;;;24.27;12.70;;;11.80;79.50;;;;;;7372732;19;20422;-43
2022/03/30 06:52:12;;;;;;;23.63;11.53;;;11.90;78.90;;;;;;7360884;19;20384;-42
2022/03/30 06:54:41;;;;;;;20.70;9.20;;;11.70;79.10;;;;;;7365208;19;20396;-42
2022/03/30 06:57:13;;;;;;;25.33;11.13;;;11.70;79.90;;;;;;7376220;19;20409;-42
2022/03/30 06:59:43;;;;;;;21.37;11.20;;;11.80;80.60;;;;;;7375158;19;20419;-43
2022/03/30 07:02:12;;;;;;;20.53;11.67;;;11.80;80.30;;;;;;7378825;19;20734;-45
2022/03/30 07:04:42;;;;;;;20.43;11.93;;;11.90;79.90;;;;;;7375995;19;20868;-45
2022/03/30 07:12:42;;;;;;;20.67;13.80;;;11.80;80.60;;;;;;7366292;19;20361;-39
2022/03/30 07:15:13;;;;;;;26.40;14.75;;;11.70;80.50;;;;;;7374486;19;20854;-39
2022/03/30 07:17:50;;;;;;;31.60;13.53;;;11.70;80.50;;;;;;7365653;19;20138;-39
2022/03/30 07:20:24;;;;;;;28.87;12.30;;;11.50;80.40;;;;;;7375431;19;20356;-39
2022/03/30 07:22:55;;;;;;;26.70;13.67;;;11.50;81.20;;;;;;7372249;19;20380;-39
2022/03/30 07:25:25;;;;;;;27.70;12.90;;;11.50;80.80;;;;;;7370884;19;20961;-39
2022/03/30 07:28:02;;;;;;;27.60;13.17;;;11.50;81.00;;;;;;7372630;19;20372;-39
2022/03/30 07:30:36;;;;;;;26.70;14.37;;;11.60;80.80;;;;;;7377818;19;20383;-39
2022/03/30 07:33:07;;;;;;;35.20;15.00;;;11.70;81.20;;;;;;7376992;19;20387;-39
2022/03/30 07:35:37;;;;;;;25.50;12.97;;;11.80;81.10;;;;;;7376107;19;20932;-39
2022/03/30 07:38:07;;;;;;;21.23;12.10;;;11.90;79.50;;;;;;7376647;19;20360;-39
2022/03/30 07:40:37;;;;;;;20.47;12.77;;;11.90;79.40;;;;;;7372656;19;20943;-43
2022/03/30 07:43:09;;;;;;;19.37;12.83;;;12.00;78.40;;;;;;7379132;19;20372;-43
2022/03/30 07:45:42;;;;;;;22.07;12.97;;;11.90;78.40;;;;;;7379683;19;20431;-43
2022/03/30 07:48:15;;;;;;;21.90;13.90;;;12.10;77.70;;;;;;7372584;19;20427;-42
2022/03/30 07:50:44;;;;;;;22.93;13.13;;;12.30;76.90;;;;;;7376827;19;20843;-42
2022/03/30 07:53:14;;;;;;;23.97;13.33;;;12.30;76.50;;;;;;7373177;19;20367;-43
2022/03/30 07:55:44;;;;;;;21.13;12.57;;;12.50;76.50;;;;;;7358942;19;20707;-42
2022/03/30 07:58:18;;;;;;;25.53;13.20;;;12.50;75.80;;;;;;7365040;19;20764;-43
2022/03/30 08:00:56;;;;;;;19.50;11.93;;;12.60;76.40;;;;;;7358618;19;20469;-43
2022/03/30 08:03:26;;;;;;;26.63;12.00;;;12.60;75.70;;;;;;7375276;19;20369;-42
2022/03/30 08:05:55;;;;;;;26.83;13.47;;;12.80;75.70;;;;;;7374747;19;20368;-42
2022/03/30 08:08:25;;;;;;;23.00;13.63;;;12.90;74.50;;;;;;7356691;19;20770;-43
2022/03/30 08:10:55;;;;;;;23.73;12.43;;;12.90;74.00;;;;;;7374312;19;20443;-43
2022/03/30 08:13:29;;;;;;;23.70;13.67;;;12.90;73.60;;;;;;7370252;19;20385;-43
2022/03/30 08:15:58;;;;;;;21.23;12.60;;;12.80;74.10;;;;;;7376760;19;20423;-42
2022/03/30 08:18:28;;;;;;;22.13;13.20;;;12.70;74.10;;;;;;7377822;19;20422;-43
2022/03/30 08:23:42;;;;;;;21.40;13.53;;;12.60;75.40;;;;;;7374819;19;20948;-42
2022/03/30 08:26:23;;;;;;;21.83;12.90;;;12.60;74.20;;;;;;7374243;19;20367;-43
2022/03/30 08:28:58;;;;;;;24.23;11.80;;;12.70;74.80;;;;;;7373536;19;20536;-43
2022/03/30 08:31:30;;;;;;;19.40;12.43;;;12.70;74.30;;;;;;7377447;19;20818;-42
2022/03/30 08:34:04;;;;;;;19.90;11.67;;;12.70;74.50;;;;;;7374987;19;20387;-43
2022/03/30 08:36:34;;;;;;;21.20;12.87;;;12.80;74.10;;;;;;7377922;19;20467;-43
2022/03/30 08:39:11;;;;;;;20.60;10.03;;;12.80;74.00;;;;;;7374741;19;20925;-43
2022/03/30 08:41:43;;;;;;;19.23;10.00;;;12.80;73.80;;;;;;7376659;19;20847;-42
2022/03/30 08:44:17;;;;;;;28.00;13.13;;;12.70;72.60;;;;;;7378094;19;20376;-43
2022/03/30 08:46:52;;;;;;;24.63;10.03;;;12.90;74.10;;;;;;7375601;19;20378;-43
2022/03/30 08:49:24;;;;;;;19.30;10.07;;;12.90;72.20;;;;;;7375554;19;20364;-43
2022/03/30 08:51:55;;;;;;;21.30;11.60;;;13.00;73.50;;;;;;7372383;19;20368;-43
2022/03/30 08:54:26;;;;;;;18.13;10.00;;;13.10;73.10;;;;;;7373676;19;20356;-43
2022/03/30 08:56:56;;;;;;;19.17;10.00;;;13.00;70.90;;;;;;7377799;19;21113;-42
2022/03/30 08:59:29;;;;;;;15.73;9.33;;;12.80;72.50;;;;;;7376519;19;20439;-43
2022/03/30 09:01:59;;;;;;;17.33;8.63;;;12.90;72.70;;;;;;7380119;19;20372;-43
2022/03/30 09:04:29;;;;;;;17.27;9.17;;;12.80;72.50;;;;;;7382751;19;20447;-43
2022/03/30 09:07:01;;;;;;;18.57;10.10;;;12.80;72.30;;;;;;7378732;19;20473;-44
2022/03/30 09:09:35;;;;;;;16.93;10.93;;;12.90;72.20;;;;;;7380214;19;20372;-43
2022/03/30 09:12:32;;;;;;;22.90;10.27;;;13.00;72.00;;;;;;7383662;19;20391;-42
2022/03/30 09:15:08;;;;;;;19.80;9.50;;;13.00;71.10;;;;;;7383274;19;20372;-43
2022/03/30 09:17:41;;;;;;;14.83;8.73;;;13.10;71.00;;;;;;7379035;19;20364;-43
2022/03/30 09:20:17;;;;;;;27.50;9.80;;;13.20;71.10;;;;;;7383183;19;20714;-43
2022/03/30 09:22:48;;;;;;;14.53;7.80;;;13.30;70.30;;;;;;7377187;19;20409;-43
2022/03/30 09:25:20;;;;;;;16.50;8.53;;;13.30;70.40;;;;;;7379698;19;20723;-42
2022/03/30 09:27:55;;;;;;;22.07;10.20;;;13.30;70.40;;;;;;7381619;19;21043;-43
2022/03/30 09:30:29;;;;;;;18.77;9.20;;;13.30;70.30;;;;;;7381313;19;20425;-43
2022/03/30 09:33:00;;;;;;;16.30;7.80;;;13.10;70.60;;;;;;7384115;19;20376;-43
2022/03/30 09:35:38;;;;;;;22.00;9.17;;;13.20;70.90;;;;;;7384386;19;20721;-43
2022/03/30 09:38:40;;;;;;;15.80;8.93;;;13.10;70.60;;;;;;7381225;19;21273;-43
2022/03/30 09:41:11;;;;;;;22.33;9.50;;;13.30;71.60;;;;;;7382037;19;20387;-43
2022/03/30 09:43:41;;;;;;;16.57;9.27;;;13.30;70.50;;;;;;7381478;19;20420;-43
2022/03/30 09:46:19;;;;;;;20.20;8.70;;;13.30;69.50;;;;;;7383840;19;20371;-43
2022/03/30 09:48:53;;;;;;;17.10;9.40;;;13.30;71.00;;;;;;7382309;19;20812;-43
2022/03/30 09:51:24;;;;;;;20.30;9.23;;;13.30;70.10;;;;;;7378516;19;20463;-43
2022/03/30 09:53:56;;;;;;;14.77;8.93;;;13.40;71.00;;;;;;7383698;19;20372;-42
2022/03/30 09:56:27;;;;;;;20.07;10.10;;;13.40;70.80;;;;;;7381096;19;20383;-42
2022/03/30 09:59:05;;;;;;;15.27;9.27;;;13.40;71.60;;;;;;7377162;19;20420;-43
2022/03/30 10:01:38;;;;;;;18.40;9.33;;;13.20;71.50;;;;;;7379187;19;20380;-42
2022/03/30 10:04:12;;;;;;;19.60;8.77;;;13.20;71.20;;;;;;7381090;19;20380;-43
2022/03/30 10:06:42;;;;;;;23.43;10.00;;;13.20;71.80;;;;;;7380948;19;20406;-43
2022/03/30 10:16:32;;;;;;;19.67;8.90;;;13.40;70.40;;;;;;7373332;19;20915;-43
2022/03/30 10:19:08;;;;;;;16.67;8.80;;;13.70;71.00;;;;;;7370956;19;20937;-43
2022/03/30 10:21:47;;;;;;;19.17;10.00;;;13.90;69.40;;;;;;7379727;19;21057;-40
2022/03/30 10:24:46;;;;;;;17.30;10.90;;;14.00;68.70;;;;;;7382193;19;20903;-40
2022/03/30 10:27:22;;;;;;;13.87;9.40;;;14.30;67.60;;;;;;7378658;19;20340;-40
2022/03/30 10:29:55;;;;;;;22.73;11.30;;;14.40;67.20;;;;;;7377221;19;20388;-40
2022/03/30 10:32:27;;;;;;;14.73;8.67;;;14.60;66.70;;;;;;7377864;19;20934;-40
2022/03/30 10:35:17;;;;;;;17.93;8.97;;;14.70;64.50;;;;;;7380309;19;20736;-40
2022/03/30 10:37:59;;;;;;;24.83;10.87;;;14.70;65.80;;;;;;7379391;19;20375;-40
2022/03/30 10:40:29;;;;;;;21.17;9.00;;;14.90;65.90;;;;;;7381887;19;20383;-40
2022/03/30 10:43:03;;;;;;;15.90;8.50;;;15.10;64.60;;;;;;7376735;19;20376;-40
2022/03/30 10:45:50;;;;;;;16.70;10.20;;;15.20;64.40;;;;;;7371268;19;20376;-40
2022/03/30 10:48:25;;;;;;;17.10;10.43;;;15.20;64.20;;;;;;7374734;19;20934;-40
2022/03/30 10:51:02;;;;;;;27.57;12.40;;;15.20;64.80;;;;;;7378467;19;20405;-43
2022/03/30 10:53:43;;;;;;;16.20;9.37;;;15.20;63.70;;;;;;7381511;19;20923;-43
2022/03/30 10:56:36;;;;;;;24.17;12.27;;;15.30;63.50;;;;;;7378320;19;20433;-44
2022/03/30 10:59:23;;;;;;;18.00;8.23;;;15.30;63.30;;;;;;7376089;19;20495;-44
2022/03/30 11:02:15;;;;;;;20.60;9.50;;;15.30;63.70;;;;;;7381926;19;20388;-43
2022/03/30 11:04:48;;;;;;;18.83;9.73;;;15.30;64.30;;;;;;7373018;19;20372;-43
2022/03/30 11:07:41;;;;;;;21.23;11.70;;;15.40;63.40;;;;;;7379443;19;20451;-44
2022/03/30 11:10:21;;;;;;;25.63;12.23;;;15.40;63.50;;;;;;7378126;19;20447;-43
2022/03/30 11:13:08;;;;;;;15.67;9.37;;;15.30;63.50;;;;;;7380076;19;20363;-43
2022/03/30 11:16:07;;;;;;;18.70;9.90;;;15.30;63.30;;;;;;7378967;19;20377;-43
2022/03/30 11:19:02;;;;;;;19.00;8.70;;;15.20;64.00;;;;;;7373190;19;20796;-43
2022/03/30 11:21:34;;;;;;;16.43;9.00;;;15.10;64.40;;;;;;7381329;19;20390;-43
2022/03/30 11:24:30;;;;;;;18.43;8.70;;;15.00;65.40;;;;;;7371744;19;20408;-43
2022/03/30 11:27:24;;;;;;;22.90;9.97;;;14.90;65.40;;;;;;7377651;19;20380;-43
2022/03/30 11:30:13;;;;;;;15.87;10.13;;;14.90;66.50;;;;;;7373912;19;20396;-44
2022/03/30 11:33:06;;;;;;;19.97;10.07;;;14.80;67.20;;;;;;7376500;19;21026;-44
2022/03/30 11:35:39;;;;;;;15.97;9.37;;;14.80;66.70;;;;;;7371493;19;21438;-43
2022/03/30 11:38:23;;;;;;;18.40;10.60;;;14.70;67.10;;;;;;7379243;19;20921;-43
2022/03/30 11:41:07;;;;;;;15.33;9.77;;;14.50;68.60;;;;;;7374920;19;20473;-43
2022/03/30 11:45:12;;;;;;;22.27;9.90;;;14.30;70.80;;;;;;7375847;19;20481;-43
2022/03/30 11:46:30;;;;;;;14.67;9.37;;;14.30;71.60;;;;;;7377292;19;20377;-43
2022/03/30 11:49:08;;;;;;;17.70;8.13;;;14.70;69.70;;;;;;7377830;19;20376;-43
2022/03/30 11:51:39;;;;;;;17.97;9.40;;;15.10;67.50;;;;;;7373992;19;20372;-43
2022/03/30 11:54:13;;;;;;;20.17;9.90;;;15.40;66.80;;;;;;7380090;19;20733;-43
2022/03/30 11:56:45;;;;;;;18.30;11.60;;;15.50;65.90;;;;;;7376919;19;20352;-43
2022/03/30 11:59:15;;;;;;;16.73;9.50;;;15.50;65.40;;;;;;7379223;19;20918;-44
2022/03/30 12:01:47;;;;;;;20.20;10.27;;;15.60;63.50;;;;;;7373317;19;20415;-43
2022/03/30 12:04:16;;;;;;;15.33;10.00;;;15.50;63.50;;;;;;7373056;19;20369;-43
2022/03/30 12:06:49;;;;;;;16.17;10.83;;;15.50;63.30;;;;;;7370855;19;20779;-44
2022/03/30 12:09:19;;;;;;;18.63;11.03;;;15.40;62.50;;;;;;7374269;19;20751;-44
2022/03/30 12:11:56;;;;;;;19.90;10.53;;;15.30;63.50;;;;;;7375669;19;20897;-44
2022/03/30 12:14:30;;;;;;;19.43;11.90;;;15.30;63.00;;;;;;7369901;19;20719;-44
2022/03/30 12:17:04;;;;;;;17.37;11.70;;;15.30;62.70;;;;;;7372409;19;20410;-43
2022/03/30 12:19:33;;;;;;;21.67;12.63;;;15.40;62.00;;;;;;7376760;19;20365;-44
2022/03/30 12:22:07;;;;;;;14.70;11.50;;;15.30;61.70;;;;;;7374931;19;20364;-44
2022/03/30 12:24:39;;;;;;;19.70;12.47;;;15.20;63.00;;;;;;7372434;19;20376;-43
2022/03/30 12:27:14;;;;;;;17.10;12.70;;;15.00;61.40;;;;;;7378685;19;20371;-43
2022/03/30 12:29:45;;;;;;;18.83;13.13;;;14.70;62.20;;;;;;7372375;19;21124;-39
2022/03/30 12:32:18;;;;;;;17.03;13.00;;;14.60;63.20;;;;;;7373293;19;20948;-40
2022/03/30 12:34:49;;;;;;;18.23;12.40;;;14.70;63.40;;;;;;7373473;19;20388;-40
2022/03/30 12:37:25;;;;;;;18.20;12.20;;;14.60;63.40;;;;;;7377718;19;20422;-40
2022/03/30 12:39:57;;;;;;;18.30;12.50;;;14.40;63.90;;;;;;7374962;19;20376;-40
2022/03/30 12:42:30;;;;;;;17.10;11.90;;;14.40;64.90;;;;;;7371606;19;20376;-40
2022/03/30 12:45:05;;;;;;;13.90;7.87;;;14.40;66.10;;;;;;7375500;19;20380;-40
2022/03/30 12:47:40;;;;;;;10.77;7.53;;;14.30;67.10;;;;;;7372465;19;20355;-40
2022/03/30 12:50:14;;;;;;;7.17;5.40;;;14.10;67.70;;;;;;7365349;19;21424;-40
2022/03/30 12:52:44;;;;;;;7.90;5.60;;;13.80;68.90;;;;;;7373590;19;20372;-40
2022/03/30 12:55:20;;;;;;;6.77;6.03;;;13.80;69.50;;;;;;7373723;19;20908;-40
2022/03/30 12:58:02;;;;;;;8.57;5.70;;;13.70;68.80;;;;;;7376909;19;20403;-40
2022/03/30 13:00:37;;;;;;;5.30;4.77;;;13.50;69.90;;;;;;7373964;19;21001;-43
2022/03/30 13:03:09;;;;;;;6.83;5.83;;;13.30;71.20;;;;;;7375214;19;20383;-43
2022/03/30 13:05:43;;;;;;;7.60;6.60;;;13.10;72.70;;;;;;7372601;19;20375;-43
2022/03/30 13:08:17;;;;;;;6.93;6.07;;;13.10;72.60;;;;;;7374532;19;20379;-43
2022/03/30 13:11:00;;;;;;;6.20;5.20;;;13.10;73.70;;;;;;7373351;19;20372;-43
2022/03/30 13:14:00;;;;;;;10.17;5.90;;;13.20;74.10;;;;;;7365602;19;20375;-43
2022/03/30 13:16:31;;;;;;;6.30;5.57;;;13.30;74.00;;;;;;7370012;19;20736;-43
2022/03/30 13:19:04;;;;;;;24.47;8.67;;;13.40;73.00;;;;;;7267272;19;2018888;-43